Time;durP1;ratioP1;P1;durP2;ratioP2;P2;SDS_P1;SDS_P2;PMS_P1;PMS_P2;Temp;Humidity;BMP_temperature;BMP_pressure;BME280_temperature;BME280_humidity;BME280_pressure;Samples;Min_cycle;Max_cycle;Signal;HPM_P1;HPM_P2
2022/11/02 00:05:04;;;;;;;30.88;15.13;;;;;;;17.20;83.94;99520.07;4258106;82;28481;-84
2022/11/02 00:11:06;;;;;;;29.05;14.58;;;;;;;17.20;83.42;99519.52;4272637;82;28466;-83
2022/11/02 00:17:07;;;;;;;23.18;13.20;;;;;;;17.18;83.90;99520.33;4264140;82;28456;-85
2022/11/02 00:23:11;;;;;;;20.72;13.30;;;;;;;17.14;83.80;99513.80;4109508;84;28447;-84
2022/11/02 00:29:12;;;;;;;23.05;13.35;;;;;;;17.19;83.76;99514.36;4174337;84;28532;-84
2022/11/02 00:35:14;;;;;;;26.65;15.25;;;;;;;17.23;83.36;99516.29;4211783;83;28521;-83
2022/11/02 00:41:18;;;;;;;28.45;17.27;;;;;;;17.05;84.26;99515.36;4208469;84;28454;-84
2022/11/02 00:47:20;;;;;;;34.25;18.35;;;;;;;17.07;84.03;99513.20;4213510;84;28484;-84
2022/11/02 00:53:21;;;;;;;32.25;18.07;;;;;;;16.99;84.64;99516.64;4205869;84;28511;-82
2022/11/02 00:59:24;;;;;;;29.85;16.82;;;;;;;17.13;84.04;99518.95;4195424;83;28454;-83
2022/11/02 01:05:31;;;;;;;27.90;16.30;;;;;;;17.14;83.71;99527.38;4200840;84;28490;-83
2022/11/02 01:11:32;;;;;;;26.70;14.55;;;;;;;17.14;83.76;99521.94;4200406;84;28600;-83
2022/11/02 01:17:34;;;;;;;22.80;13.35;;;;;;;17.10;84.07;99518.09;4216632;83;28482;-82
2022/11/02 01:23:37;;;;;;;23.57;12.75;;;;;;;17.04;84.69;99519.16;4199178;84;28460;-83
2022/11/02 01:29:38;;;;;;;23.38;12.98;;;;;;;16.88;85.28;99510.07;4200104;85;28491;-84
2022/11/02 01:35:40;;;;;;;23.85;12.50;;;;;;;17.02;85.66;99517.23;4180077;85;28467;-83
2022/11/02 01:41:41;;;;;;;21.97;12.50;;;;;;;17.06;85.16;99508.84;4145026;85;28438;-83
2022/11/02 01:47:47;;;;;;;22.35;11.48;;;;;;;16.93;86.03;99515.00;4199505;83;28529;-83
2022/11/02 01:53:50;;;;;;;17.52;10.78;;;;;;;16.96;86.43;99513.63;4170563;85;28471;-82
2022/11/02 02:00:06;;;;;;;20.15;11.60;;;;;;;16.87;87.05;99513.31;4153844;85;28492;-85
2022/11/02 02:06:13;;;;;;;18.30;11.08;;;;;;;17.02;86.28;99515.87;4172851;85;28493;-85
2022/11/02 02:12:14;;;;;;;19.98;12.00;;;;;;;16.99;86.54;99526.15;4181446;85;28456;-86
2022/11/02 02:18:25;;;;;;;20.05;11.85;;;;;;;16.97;86.45;99524.24;4132304;85;28492;-85
2022/11/02 02:24:47;;;;;;;18.95;11.60;;;;;;;16.96;86.13;99528.04;4192356;83;28558;-83
2022/11/02 02:30:57;;;;;;;23.40;12.47;;;;;;;16.84;86.64;99529.58;4188186;83;28512;-85
2022/11/02 02:37:13;;;;;;;20.37;12.20;;;;;;;16.86;86.54;99525.26;4192755;83;28474;-84
2022/11/02 02:43:19;;;;;;;;;;;;;;;16.93;86.55;99528.58;4160723;84;28534;-84
2022/11/02 02:49:31;;;;;;;22.98;12.28;;;;;;;16.97;86.11;99531.56;4181129;83;20198;-83
2022/11/02 02:55:38;;;;;;;24.05;13.62;;;;;;;16.62;87.29;99531.06;4142627;84;28478;-83
2022/11/02 03:01:42;;;;;;;23.87;13.20;;;;;;;16.68;86.88;99534.08;4197312;83;28514;-84
2022/11/02 03:07:44;;;;;;;19.92;12.63;;;;;;;16.43;88.36;99547.73;4206017;83;28464;-83
2022/11/02 03:14:07;;;;;;;26.10;13.08;;;;;;;16.19;89.52;99556.72;4186814;83;28547;-83
2022/11/02 03:20:34;;;;;;;21.20;12.78;;;;;;;15.95;91.26;99556.18;4204655;83;28567;-83
2022/11/02 03:26:53;;;;;;;22.07;12.53;;;;;;;15.71;92.37;99565.91;4226510;82;28466;-83
2022/11/02 03:33:00;;;;;;;21.45;12.60;;;;;;;15.58;93.27;99559.80;4157421;83;28495;-82
2022/11/02 03:39:07;;;;;;;24.45;13.00;;;;;;;15.47;93.48;99571.03;4160020;82;28526;-83
2022/11/02 03:45:15;;;;;;;23.60;12.18;;;;;;;15.36;94.00;99566.55;4159885;84;28482;-83
2022/11/02 03:51:21;;;;;;;20.88;12.15;;;;;;;15.24;94.59;99563.94;4200450;83;28451;-83
2022/11/02 03:57:28;;;;;;;21.27;12.03;;;;;;;15.25;93.39;99569.63;4211738;83;28530;-84
2022/11/02 04:03:32;;;;;;;19.12;11.68;;;;;;;15.09;92.95;99574.56;4223563;83;28515;-83
2022/11/02 04:09:35;;;;;;;19.87;11.43;;;;;;;14.89;93.01;99578.59;4228946;83;28471;-84
2022/11/02 04:15:37;;;;;;;20.40;10.82;;;;;;;14.81;94.48;99574.41;4229709;83;28499;-83
2022/11/02 04:21:39;;;;;;;20.23;12.37;;;;;;;14.72;93.89;99579.39;4200609;82;28502;-84
2022/11/02 04:27:40;;;;;;;21.82;12.47;;;;;;;14.67;94.94;99588.77;4174933;83;28528;-83
2022/11/02 04:33:42;;;;;;;23.50;12.78;;;;;;;14.70;94.76;99591.52;4161900;84;28508;-81
2022/11/02 04:39:49;;;;;;;22.48;11.40;;;;;;;14.97;93.30;99588.17;4175975;83;28480;-84
2022/11/02 04:45:50;;;;;;;20.05;11.20;;;;;;;14.97;91.75;99590.88;4123234;84;28464;-82
2022/11/02 04:51:52;;;;;;;21.70;11.68;;;;;;;15.00;90.75;99597.98;4150337;84;28547;-83
2022/11/02 04:57:54;;;;;;;18.62;10.72;;;;;;;15.09;92.15;99594.87;4195343;82;28442;-83
2022/11/02 05:03:56;;;;;;;23.65;10.88;;;;;;;15.35;90.75;99597.42;4178393;82;28534;-76
2022/11/02 05:09:58;;;;;;;20.92;11.30;;;;;;;15.18;93.28;99597.45;4155576;84;28593;-76
2022/11/02 05:16:00;;;;;;;20.23;11.25;;;;;;;15.27;92.54;99589.19;4138954;84;28448;-76
2022/11/02 05:22:03;;;;;;;17.37;10.25;;;;;;;15.44;91.79;99602.70;4157264;84;28511;-73
2022/11/02 05:28:04;;;;;;;18.80;11.35;;;;;;;15.47;90.47;99607.61;4177375;84;28521;-74
2022/11/02 05:34:06;;;;;;;22.05;11.57;;;;;;;15.49;90.85;99606.02;4197059;85;28488;-73
2022/11/02 05:40:09;;;;;;;19.65;10.93;;;;;;;15.70;91.72;99609.00;4201241;84;28495;-73
2022/11/02 05:46:13;;;;;;;18.30;10.50;;;;;;;15.75;89.79;99614.48;4177122;84;28466;-73
2022/11/02 05:52:15;;;;;;;19.10;10.60;;;;;;;15.69;90.04;99618.21;4189496;84;28551;-74
2022/11/02 05:58:17;;;;;;;20.40;12.03;;;;;;;15.94;89.42;99618.27;4177535;85;28474;-75
2022/11/02 06:04:18;;;;;;;22.17;12.63;;;;;;;15.98;89.51;99619.39;4198135;84;28496;-75
2022/11/02 06:10:19;;;;;;;21.87;12.05;;;;;;;16.27;89.60;99627.33;4180076;85;28474;-76
2022/11/02 06:16:21;;;;;;;20.70;12.33;;;;;;;16.30;89.40;99626.84;4177992;85;28458;-74
2022/11/02 06:22:22;;;;;;;22.45;11.38;;;;;;;16.51;89.37;99630.56;4188077;85;28498;-81
2022/11/02 06:28:34;;;;;;;20.60;11.93;;;;;;;16.29;90.61;99632.78;4173492;83;28549;-86
2022/11/02 06:34:35;;;;;;;22.80;12.55;;;;;;;16.58;90.77;99644.77;4142285;84;28516;-77
2022/11/02 06:40:37;;;;;;;29.42;15.28;;;;;;;16.99;90.84;99632.64;4208689;83;28535;-80
2022/11/02 06:46:38;;;;;;;24.92;13.75;;;;;;;16.93;91.62;99634.49;4193734;84;28468;-82
2022/11/02 06:59:37;;;;;;;25.97;14.93;;;;;;;17.36;91.85;99643.27;3934641;87;28527;-89
2022/11/02 07:05:55;;;;;;;27.13;15.05;;;;;;;17.76;88.52;99632.35;3937537;84;28590;-89
2022/11/02 07:12:07;;;;;;;29.70;15.88;;;;;;;18.14;86.72;99639.06;4180006;83;28471;-88
2022/11/02 07:18:34;;;;;;;27.75;15.00;;;;;;;18.02;85.53;99637.09;4217082;84;28473;-88
2022/11/02 07:24:51;;;;;;;30.50;15.63;;;;;;;18.18;85.69;99640.72;4165150;84;28514;-89
2022/11/02 07:31:05;;;;;;;30.90;16.00;;;;;;;18.52;82.79;99639.69;4183143;83;28488;-87
2022/11/02 07:37:15;;;;;;;23.83;14.30;;;;;;;18.32;84.14;99629.59;4183347;83;28538;-87
2022/11/02 07:43:19;;;;;;;25.85;14.10;;;;;;;18.14;85.06;99628.71;4177597;83;28514;-87
2022/11/02 07:49:24;;;;;;;26.73;14.58;;;;;;;18.04;85.80;99625.42;4215534;83;28518;-87
2022/11/02 07:55:29;;;;;;;23.32;14.28;;;;;;;18.23;84.72;99632.02;4206503;83;28493;-87
2022/11/02 08:01:32;;;;;;;;;;;;;;;18.27;84.19;99630.13;4186760;84;28440;-87
2022/11/02 08:07:41;;;;;;;27.42;15.05;;;;;;;18.43;84.17;99629.08;4207551;84;20464;-87
2022/11/02 08:13:44;;;;;;;30.90;15.32;;;;;;;18.33;84.47;99633.94;4186407;83;28528;-85
2022/11/02 08:19:46;;;;;;;29.37;14.75;;;;;;;18.67;82.44;99641.63;4164423;84;28569;-86
2022/11/02 08:25:50;;;;;;;28.75;14.30;;;;;;;18.80;81.08;99632.11;4191260;83;28502;-87
2022/11/02 08:31:51;;;;;;;24.32;14.05;;;;;;;18.56;82.43;99626.92;4203099;83;28554;-87
2022/11/02 08:37:55;;;;;;;29.07;14.55;;;;;;;18.62;82.51;99625.30;4189341;83;28507;-88
2022/11/02 08:43:57;;;;;;;26.12;13.58;;;;;;;18.89;80.96;99620.68;4192831;83;28493;-88
2022/11/02 08:49:59;;;;;;;23.60;12.78;;;;;;;18.99;80.78;99623.41;4204963;83;28604;-88
2022/11/02 08:56:01;;;;;;;21.27;12.07;;;;;;;19.01;80.34;99615.00;4202554;83;28511;-87
2022/11/02 09:02:02;;;;;;;23.18;11.73;;;;;;;18.98;80.88;99614.13;4199616;83;28509;-78
2022/11/02 09:08:13;;;;;;;20.45;12.07;;;;;;;18.85;82.19;99614.95;4199557;83;28567;-77
2022/11/02 09:14:15;;;;;;;18.82;10.90;;;;;;;18.91;81.38;99615.77;4198329;83;28471;-76
2022/11/02 09:20:18;;;;;;;22.95;12.33;;;;;;;18.98;80.54;99611.41;4179543;83;28496;-77
2022/11/02 09:26:19;;;;;;;22.45;11.48;;;;;;;19.01;81.09;99604.90;4206551;83;28579;-78
2022/11/02 09:32:20;;;;;;;20.97;10.43;;;;;;;19.17;80.45;99596.16;4187138;83;28583;-79
2022/11/02 09:38:22;;;;;;;17.75;9.78;;;;;;;19.08;78.92;99597.27;4201206;83;28508;-78
2022/11/02 09:44:30;;;;;;;20.68;9.25;;;;;;;19.32;78.32;99591.80;4199199;83;28503;-77
2022/11/02 09:50:54;;;;;;;14.63;7.55;;;;;;;19.44;76.73;99597.75;4202453;83;28510;-87
2022/11/02 09:57:00;;;;;;;13.93;6.83;;;;;;;19.12;74.94;99590.73;4201425;83;28504;-86
2022/11/02 10:03:22;;;;;;;9.83;6.23;;;;;;;19.28;73.03;99600.23;4202706;81;28507;-82
2022/11/02 10:10:01;;;;;;;12.53;6.70;;;;;;;19.12;72.64;99585.28;4207326;83;28472;-84
2022/11/02 10:16:11;;;;;;;11.95;6.47;;;;;;;19.39;72.46;99581.95;4201681;83;28470;-86
2022/11/02 10:22:15;;;;;;;11.48;6.95;;;;;;;19.86;71.53;99578.52;4202740;83;28546;-85
2022/11/02 10:28:25;;;;;;;12.50;6.60;;;;;;;19.77;70.39;99576.90;4200278;83;28523;-85
2022/11/02 10:34:28;;;;;;;11.75;6.55;;;;;;;19.87;69.72;99570.59;4200962;83;28538;-79
2022/11/02 10:41:11;;;;;;;14.60;7.08;;;;;;;19.77;69.81;99572.27;4215266;83;28501;-79
2022/11/02 10:47:25;;;;;;;11.55;6.40;;;;;;;20.07;69.35;99566.97;4204636;83;28543;-79
2022/11/02 10:53:26;;;;;;;11.03;6.05;;;;;;;20.00;67.78;99565.91;4206903;82;28535;-77
2022/11/02 10:59:30;;;;;;;12.80;5.95;;;;;;;20.00;68.10;99561.02;4201825;83;28640;-78
2022/11/02 11:05:36;;;;;;;10.53;6.15;;;;;;;19.83;68.61;99559.95;4202831;83;28510;-77
2022/11/02 11:11:37;;;;;;;14.03;5.97;;;;;;;20.26;67.12;99566.31;4207056;83;28477;-77
2022/11/02 11:17:40;;;;;;;8.65;4.12;;;;;;;20.57;66.19;99563.36;4203202;83;28524;-77
2022/11/02 11:23:41;;;;;;;6.60;4.17;;;;;;;19.84;64.05;99568.44;4199985;83;28599;-77
2022/11/02 11:29:56;;;;;;;8.63;4.40;;;;;;;20.15;63.63;99567.74;4202548;83;28494;-78
2022/11/02 11:36:00;;;;;;;7.70;4.05;;;;;;;20.19;64.20;99562.54;4181796;83;28519;-77
2022/11/02 11:42:04;;;;;;;6.78;3.37;;;;;;;20.48;61.77;99573.53;4205368;83;28527;-78
2022/11/02 11:48:49;;;;;;;6.15;3.75;;;;;;;20.53;61.39;99561.75;4203611;83;28473;-77
2022/11/02 11:54:59;;;;;;;8.03;3.63;;;;;;;20.75;61.13;99555.84;4202374;83;28595;-77
2022/11/02 12:01:17;;;;;;;5.00;2.90;;;;;;;20.27;61.63;99558.39;4202874;83;28468;-78
2022/11/02 12:08:15;;;;;;;4.65;3.00;;;;;;;20.48;60.21;99555.77;4193738;83;28501;-77
2022/11/02 12:14:31;;;;;;;4.80;2.92;;;;;;;20.78;59.07;99543.53;4124784;83;28491;-78
2022/11/02 12:21:01;;;;;;;6.60;3.22;;;;;;;20.50;57.58;99550.58;4132061;83;28516;-77
2022/11/02 12:27:26;;;;;;;6.58;2.92;;;;;;;20.76;57.85;99542.45;4289225;81;28511;-77
2022/11/02 12:33:33;;;;;;;7.22;3.20;;;;;;;20.50;57.20;99548.67;4251448;82;28550;-78
2022/11/02 12:40:04;;;;;;;6.90;2.92;;;;;;;20.80;57.23;99536.40;4251188;82;28544;-77
2022/11/02 12:46:32;;;;;;;8.48;3.33;;;;;;;20.52;57.92;99531.45;4227165;82;28525;-76
2022/11/02 12:53:06;;;;;;;4.45;3.20;;;;;;;20.75;58.33;99520.86;4250318;82;28499;-77
2022/11/02 12:59:24;;;;;;;6.80;3.35;;;;;;;20.87;57.80;99529.52;4238182;82;28519;-78
2022/11/02 13:05:31;;;;;;;8.85;3.37;;;;;;;20.93;57.00;99519.92;4243326;82;28567;-79
2022/11/02 13:11:40;;;;;;;7.90;3.60;;;;;;;21.44;56.42;99526.20;4214259;82;28587;-78
2022/11/02 13:17:50;;;;;;;5.87;3.17;;;;;;;21.18;55.87;99527.04;4093587;84;28487;-80
2022/11/02 13:23:56;;;;;;;6.08;3.65;;;;;;;21.05;55.49;99517.60;4171606;85;28510;-87
2022/11/02 13:30:05;;;;;;;5.70;3.50;;;;;;;20.96;55.93;99528.36;4207464;83;28459;-87
2022/11/02 13:36:09;;;;;;;;;;;;;;;21.09;54.89;99529.61;4206544;84;28461;-86
2022/11/02 13:42:42;;;;;;;5.28;3.22;;;;;;;21.00;54.49;99533.50;4234304;82;20605;-87
2022/11/02 13:49:05;;;;;;;6.35;3.42;;;;;;;20.84;55.71;99530.10;4214583;82;28521;-88
2022/11/02 13:55:15;;;;;;;5.87;3.37;;;;;;;20.51;56.49;99533.08;4247305;82;28498;-86
2022/11/02 14:01:18;;;;;;;7.83;4.00;;;;;;;20.44;57.82;99532.05;4228680;83;28451;-86
2022/11/02 14:07:31;;;;;;;9.15;4.47;;;;;;;20.41;58.33;99538.09;4242843;84;28497;-86
2022/11/02 14:14:02;;;;;;;7.95;4.62;;;;;;;20.25;59.19;99540.91;4242057;82;28462;-86
2022/11/02 14:20:03;;;;;;;9.38;5.12;;;;;;;20.39;59.42;99543.03;4239316;84;28576;-85
2022/11/02 14:26:10;;;;;;;8.20;5.17;;;;;;;20.27;60.34;99536.02;4214082;84;28458;-84
2022/11/02 14:32:41;;;;;;;10.88;5.53;;;;;;;20.17;61.66;99548.36;4209809;82;28547;-85
2022/11/02 14:39:24;;;;;;;9.25;5.08;;;;;;;19.90;62.87;99545.47;4224584;82;28513;-85
2022/11/02 14:45:53;;;;;;;9.58;4.33;;;;;;;19.90;62.86;99549.56;4216700;83;28518;-86
2022/11/02 14:52:06;;;;;;;9.78;4.53;;;;;;;19.69;63.14;99553.75;4209289;83;28430;-86
2022/11/02 14:58:20;;;;;;;8.78;4.53;;;;;;;19.65;63.37;99550.77;4202009;82;28496;-85
2022/11/02 15:04:24;;;;;;;8.70;4.00;;;;;;;19.33;64.33;99552.53;4214616;82;28475;-86
2022/11/02 15:10:39;;;;;;;6.60;3.90;;;;;;;19.33;64.32;99551.97;4199568;83;28485;-85
2022/11/02 15:16:41;;;;;;;9.03;4.58;;;;;;;19.17;64.70;99555.28;4200276;83;28531;-86
2022/11/02 15:22:51;;;;;;;6.62;4.12;;;;;;;19.11;64.83;99551.48;4185707;82;28551;-86
2022/11/02 15:29:04;;;;;;;7.72;4.50;;;;;;;18.96;65.07;99557.20;4209416;82;28489;-84
2022/11/02 15:35:14;;;;;;;8.48;4.25;;;;;;;18.80;65.75;99559.93;4229521;83;28523;-85
2022/11/02 15:41:44;;;;;;;12.55;5.42;;;;;;;18.78;65.79;99559.39;4211588;83;28439;-89
2022/11/02 15:48:00;;;;;;;10.25;5.17;;;;;;;18.64;66.39;99567.28;4182563;83;28452;-86
2022/11/02 15:54:57;;;;;;;7.78;4.58;;;;;;;18.58;66.61;99579.25;4231084;83;28452;-86
2022/11/02 16:01:21;;;;;;;9.68;5.25;;;;;;;18.52;66.72;99582.52;4217515;84;28498;-85
2022/11/02 16:07:25;;;;;;;8.30;4.67;;;;;;;18.30;67.45;99592.30;4159099;84;28443;-87
2022/11/02 16:13:28;;;;;;;8.93;4.60;;;;;;;18.11;67.71;99601.48;4194278;84;28474;-89
2022/11/02 16:19:44;;;;;;;8.65;4.42;;;;;;;18.07;67.42;99612.64;4165342;82;28472;-87
2022/11/02 16:25:57;;;;;;;8.05;4.50;;;;;;;18.04;67.46;99626.23;4115730;83;28465;-81
2022/11/02 16:31:59;;;;;;;11.30;5.67;;;;;;;18.09;67.25;99624.06;4252312;82;28529;-87
2022/11/02 16:38:04;;;;;;;9.80;4.85;;;;;;;18.03;67.40;99627.31;4279012;81;28494;-85
2022/11/02 16:44:17;;;;;;;10.35;5.60;;;;;;;18.00;67.46;99635.98;4271974;82;28443;-86
2022/11/02 16:50:22;;;;;;;9.83;4.65;;;;;;;17.74;68.28;99648.09;4282394;81;28543;-85
2022/11/02 16:56:31;;;;;;;11.00;5.58;;;;;;;17.47;69.32;99646.33;4280692;82;28459;-85
2022/11/02 17:02:39;;;;;;;9.93;5.30;;;;;;;17.68;68.73;99648.61;4280090;82;28479;-86
2022/11/02 17:08:42;;;;;;;13.90;6.40;;;;;;;17.62;69.22;99651.56;4280515;80;28460;-86
2022/11/02 17:14:47;;;;;;;14.45;7.05;;;;;;;17.66;69.02;99660.84;4269025;82;28500;-90
2022/11/02 17:21:08;;;;;;;15.65;7.20;;;;;;;17.78;68.70;99662.81;4275167;81;28477;-87
2022/11/02 17:27:27;;;;;;;14.65;7.60;;;;;;;17.68;68.93;99660.04;4254149;81;28561;-89
2022/11/02 17:33:39;;;;;;;16.77;9.58;;;;;;;17.62;69.10;99665.98;4239081;82;28546;-91
2022/11/02 17:39:42;;;;;;;16.95;8.68;;;;;;;17.47;69.57;99672.14;4255936;81;28507;-84
2022/11/02 17:45:43;;;;;;;18.50;9.00;;;;;;;17.35;70.02;99672.88;4277436;81;28526;-87
2022/11/02 17:58:23;;;;;;;19.95;9.70;;;;;;;17.32;70.25;99677.45;4252981;80;28444;-85
2022/11/02 18:04:26;;;;;;;20.17;9.63;;;;;;;17.25;70.77;99686.67;4245802;80;28490;-89
2022/11/02 18:10:35;;;;;;;18.73;9.88;;;;;;;17.12;71.20;99692.52;4256482;81;28505;-86
2022/11/02 18:16:42;;;;;;;18.10;9.35;;;;;;;17.24;71.05;99697.26;4272170;81;28527;-86
2022/11/02 18:22:45;;;;;;;21.33;10.13;;;;;;;17.15;71.50;99702.89;4260722;82;28490;-84
2022/11/02 18:28:48;;;;;;;20.92;10.00;;;;;;;17.06;71.83;99706.59;4242558;82;28467;-83
2022/11/02 18:34:51;;;;;;;19.90;10.28;;;;;;;17.18;71.51;99706.44;4225172;83;28571;-90
2022/11/02 18:40:55;;;;;;;17.45;9.90;;;;;;;17.26;71.25;99710.05;4200002;83;28543;-88
2022/11/02 18:46:58;;;;;;;22.10;11.68;;;;;;;17.40;70.90;99719.11;4230510;83;28517;-87
2022/11/02 18:53:01;;;;;;;20.27;10.48;;;;;;;17.25;71.44;99718.44;4212218;83;28493;-87
2022/11/02 18:59:02;;;;;;;24.65;12.10;;;;;;;17.40;71.14;99721.83;4226392;83;28611;-89
2022/11/02 19:09:16;;;;;;;22.22;11.48;;;;;;;17.51;73.19;99725.45;4222507;83;28501;-88
2022/11/02 19:11:08;;;;;;;23.67;11.88;;;;;;;17.62;71.41;99733.97;4192270;83;28475;-80
2022/11/02 19:17:11;;;;;;;29.45;13.53;;;;;;;17.64;70.79;99737.23;4197830;83;28474;-86
2022/11/02 19:23:13;;;;;;;23.12;11.25;;;;;;;17.71;70.55;99742.44;4221916;83;28591;-87
2022/11/02 19:29:15;;;;;;;21.75;11.45;;;;;;;17.69;70.60;99743.25;4170627;82;28489;-87
2022/11/02 19:35:16;;;;;;;25.10;12.03;;;;;;;17.60;70.72;99743.45;4184123;82;28497;-83
2022/11/02 19:41:18;;;;;;;20.88;11.22;;;;;;;17.45;71.06;99764.02;4162909;83;28564;-82
2022/11/02 19:47:19;;;;;;;25.15;11.93;;;;;;;17.49;71.18;99769.20;4216935;83;28506;-84
2022/11/02 19:53:24;;;;;;;21.75;11.03;;;;;;;17.53;70.82;99782.54;4211431;83;28500;-85
2022/11/02 19:59:27;;;;;;;25.15;13.50;;;;;;;17.08;72.59;99783.24;4210726;83;28474;-84
2022/11/02 20:05:30;;;;;;;23.38;11.50;;;;;;;16.95;72.40;99785.78;4216079;83;28488;-84
2022/11/02 20:11:32;;;;;;;21.82;11.08;;;;;;;16.91;72.12;99790.07;4209156;83;28544;-83
2022/11/02 20:17:34;;;;;;;20.15;10.40;;;;;;;16.57;73.32;99797.84;4141839;84;28480;-83
2022/11/02 20:23:36;;;;;;;23.42;11.05;;;;;;;16.37;74.48;99786.17;4196855;83;28966;-83
2022/11/02 20:29:39;;;;;;;22.35;10.72;;;;;;;16.49;74.90;99783.88;4207790;83;28487;-83
2022/11/02 20:35:43;;;;;;;20.68;11.18;;;;;;;16.69;73.99;99794.98;4217818;83;28472;-81
2022/11/02 20:41:44;;;;;;;23.40;11.57;;;;;;;16.94;72.74;99803.16;4226163;83;28487;-80
2022/11/02 20:47:49;;;;;;;23.38;12.15;;;;;;;16.76;73.42;99804.84;4255868;82;28462;-80
2022/11/02 20:53:51;;;;;;;23.05;11.80;;;;;;;16.62;74.06;99797.09;4219113;83;28499;-81
2022/11/02 20:59:54;;;;;;;24.43;11.63;;;;;;;16.45;74.97;99790.34;4209174;84;28492;-80
2022/11/02 21:05:56;;;;;;;21.57;11.68;;;;;;;16.41;75.31;99799.55;4191320;84;28447;-81
2022/11/02 21:18:10;;;;;;;24.95;11.45;;;;;;;16.43;75.35;99810.13;4153830;84;28478;-80
2022/11/02 21:24:13;;;;;;;23.42;12.05;;;;;;;16.47;75.12;99805.86;4189934;83;28448;-81
2022/11/02 21:30:17;;;;;;;24.02;12.07;;;;;;;15.97;78.64;99803.52;4219481;83;28461;-81
2022/11/02 21:36:23;;;;;;;23.85;12.13;;;;;;;15.83;78.44;99803.83;4205148;85;28472;-81
2022/11/02 21:42:27;;;;;;;19.98;11.00;;;;;;;15.77;79.53;99793.16;4183780;84;28488;-82
2022/11/02 21:48:36;;;;;;;26.40;11.80;;;;;;;15.60;79.39;99803.45;4162484;84;28449;-82
2022/11/02 21:54:37;;;;;;;23.65;11.70;;;;;;;15.63;80.73;99799.44;4147888;83;28488;-83
2022/11/02 22:07:00;;;;;;;24.12;11.18;;;;;;;16.02;78.03;99805.77;4173481;84;28503;-81
2022/11/02 22:19:22;;;;;;;20.48;10.82;;;;;;;16.11;77.51;99821.11;4185915;83;28542;-81
2022/11/02 22:25:23;;;;;;;22.48;11.80;;;;;;;16.34;76.43;99818.42;4187060;85;28460;-80
2022/11/02 22:31:30;;;;;;;25.20;12.55;;;;;;;16.29;76.69;99817.81;4167356;84;28436;-80
2022/11/02 22:44:00;;;;;;;26.27;12.13;;;;;;;15.96;79.07;99820.34;4230143;83;28444;-80
2022/11/02 22:50:02;;;;;;;24.70;12.68;;;;;;;15.68;80.10;99822.58;4190315;84;28481;-81
2022/11/02 22:56:10;;;;;;;22.90;12.10;;;;;;;15.45;80.64;99809.44;4184100;83;28488;-79
2022/11/02 23:02:12;;;;;;;23.57;11.75;;;;;;;15.34;81.96;99820.64;4192730;83;28468;-80
2022/11/02 23:08:13;;;;;;;22.20;11.45;;;;;;;15.09;82.76;99820.44;4202298;83;28475;-82
2022/11/02 23:14:15;;;;;;;23.62;11.70;;;;;;;14.78;83.89;99828.80;4201089;83;28518;-81
2022/11/02 23:20:17;;;;;;;22.52;11.53;;;;;;;14.59;85.17;99831.34;4211357;83;28470;-79
2022/11/02 23:26:18;;;;;;;22.93;11.60;;;;;;;14.42;86.37;99837.50;4177772;83;28470;-79
2022/11/02 23:32:25;;;;;;;26.12;11.00;;;;;;;14.30;86.91;99841.55;4186577;84;28596;-81
2022/11/02 23:39:46;;;;;;;24.47;11.50;;;;;;;14.13;87.38;99849.56;4143499;84;28470;-81
2022/11/02 23:44:30;;;;;;;21.73;10.82;;;;;;;14.13;86.97;99850.91;4176003;84;28497;-75
2022/11/02 23:56:51;;;;;;;24.02;11.65;;;;;;;13.87;88.33;99852.98;4187026;84;28504;-77
